sensor_id;sensor_type;location;lat;lon;timestamp;pressure;altitude;pressure_sealevel;temperature;humidity
77867;BME280;67271;59.120;37.970;2023-04-23T00:03:20;99608.78;;;7.32;57.21
77867;BME280;67271;59.120;37.970;2023-04-23T00:05:50;99615.72;;;7.42;56.89
77867;BME280;67271;59.120;37.970;2023-04-23T00:08:17;99606.66;;;7.43;56.83
77867;BME280;67271;59.120;37.970;2023-04-23T00:10:44;99609.34;;;7.43;56.88
77867;BME280;67271;59.120;37.970;2023-04-23T00:13:10;99613.41;;;7.38;56.63
77867;BME280;67271;59.120;37.970;2023-04-23T00:15:36;99610.00;;;7.30;56.98
77867;BME280;67271;59.120;37.970;2023-04-23T00:18:02;99611.84;;;7.29;57.29
77867;BME280;67271;59.120;37.970;2023-04-23T00:20:28;99613.00;;;7.20;57.21
77867;BME280;67271;59.120;37.970;2023-04-23T00:22:54;99613.53;;;7.16;57.56
77867;BME280;67271;59.120;37.970;2023-04-23T00:25:20;99612.09;;;7.13;57.51
77867;BME280;67271;59.120;37.970;2023-04-23T00:27:46;99617.47;;;7.13;57.34
77867;BME280;67271;59.120;37.970;2023-04-23T00:30:12;99616.91;;;7.03;57.64
77867;BME280;67271;59.120;37.970;2023-04-23T00:32:38;99610.03;;;7.00;58.03
77867;BME280;67271;59.120;37.970;2023-04-23T00:35:05;99613.75;;;6.99;58.13
77867;BME280;67271;59.120;37.970;2023-04-23T00:37:32;99610.50;;;7.04;57.90
77867;BME280;67271;59.120;37.970;2023-04-23T00:39:58;99620.88;;;7.07;57.81
77867;BME280;67271;59.120;37.970;2023-04-23T00:42:24;99622.28;;;7.03;57.74
77867;BME280;67271;59.120;37.970;2023-04-23T00:44:51;99620.63;;;7.02;58.17
77867;BME280;67271;59.120;37.970;2023-04-23T00:47:17;99626.91;;;6.94;58.11
77867;BME280;67271;59.120;37.970;2023-04-23T00:49:45;99618.94;;;6.86;58.67
77867;BME280;67271;59.120;37.970;2023-04-23T00:52:11;99620.19;;;6.84;58.35
77867;BME280;67271;59.120;37.970;2023-04-23T00:54:37;99629.03;;;6.84;58.47
77867;BME280;67271;59.120;37.970;2023-04-23T00:57:03;99627.84;;;6.87;58.54
77867;BME280;67271;59.120;37.970;2023-04-23T00:59:30;99618.41;;;6.91;58.57
77867;BME280;67271;59.120;37.970;2023-04-23T01:01:57;99621.38;;;6.96;58.17
77867;BME280;67271;59.120;37.970;2023-04-23T01:04:26;99631.19;;;6.89;58.71
77867;BME280;67271;59.120;37.970;2023-04-23T01:06:54;99630.94;;;6.98;58.72
77867;BME280;67271;59.120;37.970;2023-04-23T01:09:21;99639.84;;;6.99;58.38
77867;BME280;67271;59.120;37.970;2023-04-23T01:11:48;99631.09;;;6.97;58.82
77867;BME280;67271;59.120;37.970;2023-04-23T01:14:16;99628.88;;;7.00;58.74
77867;BME280;67271;59.120;37.970;2023-04-23T01:16:42;99633.41;;;7.00;58.75
77867;BME280;67271;59.120;37.970;2023-04-23T01:19:09;99631.66;;;6.92;58.93
77867;BME280;67271;59.120;37.970;2023-04-23T01:21:36;99635.75;;;6.88;58.83
77867;BME280;67271;59.120;37.970;2023-04-23T01:24:06;99638.69;;;6.93;59.18
77867;BME280;67271;59.120;37.970;2023-04-23T01:26:33;99642.63;;;6.91;59.00
77867;BME280;67271;59.120;37.970;2023-04-23T01:29:00;99635.66;;;6.96;58.94
77867;BME280;67271;59.120;37.970;2023-04-23T01:31:26;99631.75;;;6.99;58.96
77867;BME280;67271;59.120;37.970;2023-04-23T01:33:53;99635.38;;;6.91;59.33
77867;BME280;67271;59.120;37.970;2023-04-23T01:36:24;99634.91;;;6.88;59.83
77867;BME280;67271;59.120;37.970;2023-04-23T01:38:50;99635.16;;;6.78;59.55
77867;BME280;67271;59.120;37.970;2023-04-23T01:41:17;99645.75;;;6.80;59.43
77867;BME280;67271;59.120;37.970;2023-04-23T01:43:44;99646.94;;;6.77;59.60
77867;BME280;67271;59.120;37.970;2023-04-23T01:46:11;99648.09;;;6.83;59.65
77867;BME280;67271;59.120;37.970;2023-04-23T01:48:37;99648.72;;;6.85;59.52
77867;BME280;67271;59.120;37.970;2023-04-23T01:51:04;99658.34;;;6.79;59.85
77867;BME280;67271;59.120;37.970;2023-04-23T01:53:30;99649.84;;;6.76;59.89
77867;BME280;67271;59.120;37.970;2023-04-23T01:55:57;99654.16;;;6.77;59.82
77867;BME280;67271;59.120;37.970;2023-04-23T01:58:25;99653.91;;;6.86;59.72
77867;BME280;67271;59.120;37.970;2023-04-23T02:00:52;99653.16;;;6.92;59.56
77867;BME280;67271;59.120;37.970;2023-04-23T02:03:18;99654.31;;;6.98;59.48
77867;BME280;67271;59.120;37.970;2023-04-23T02:05:44;99661.34;;;6.99;59.53
77867;BME280;67271;59.120;37.970;2023-04-23T02:08:11;99651.63;;;6.98;59.42
77867;BME280;67271;59.120;37.970;2023-04-23T02:10:37;99656.06;;;7.06;59.46
77867;BME280;67271;59.120;37.970;2023-04-23T02:13:03;99645.56;;;7.11;59.36
77867;BME280;67271;59.120;37.970;2023-04-23T02:15:29;99652.16;;;7.08;59.38
77867;BME280;67271;59.120;37.970;2023-04-23T02:17:56;99658.94;;;7.04;59.37
77867;BME280;67271;59.120;37.970;2023-04-23T02:20:22;99656.25;;;7.04;59.48
77867;BME280;67271;59.120;37.970;2023-04-23T02:22:48;99657.44;;;7.02;59.89
77867;BME280;67271;59.120;37.970;2023-04-23T02:25:15;99665.69;;;7.00;59.65
77867;BME280;67271;59.120;37.970;2023-04-23T02:27:43;99658.28;;;7.02;59.68
77867;BME280;67271;59.120;37.970;2023-04-23T02:30:09;99671.06;;;7.00;59.67
77867;BME280;67271;59.120;37.970;2023-04-23T02:32:36;99665.16;;;7.05;59.73
77867;BME280;67271;59.120;37.970;2023-04-23T02:35:04;99673.88;;;7.07;59.76
77867;BME280;67271;59.120;37.970;2023-04-23T02:37:34;99669.50;;;7.06;59.87
77867;BME280;67271;59.120;37.970;2023-04-23T02:40:00;99677.00;;;7.10;59.37
77867;BME280;67271;59.120;37.970;2023-04-23T02:42:26;99669.31;;;7.07;59.83
77867;BME280;67271;59.120;37.970;2023-04-23T02:44:52;99672.91;;;7.14;59.85
77867;BME280;67271;59.120;37.970;2023-04-23T02:47:18;99666.16;;;7.18;59.78
77867;BME280;67271;59.120;37.970;2023-04-23T02:49:44;99680.06;;;7.22;59.79
77867;BME280;67271;59.120;37.970;2023-04-23T02:52:10;99674.78;;;7.28;59.70
77867;BME280;67271;59.120;37.970;2023-04-23T02:54:36;99677.28;;;7.30;59.68
77867;BME280;67271;59.120;37.970;2023-04-23T02:57:03;99679.59;;;7.33;59.62
77867;BME280;67271;59.120;37.970;2023-04-23T02:59:29;99679.69;;;7.39;59.37
77867;BME280;67271;59.120;37.970;2023-04-23T03:01:55;99689.16;;;7.35;59.70
77867;BME280;67271;59.120;37.970;2023-04-23T03:04:21;99686.09;;;7.38;59.36
77867;BME280;67271;59.120;37.970;2023-04-23T03:06:48;99691.47;;;7.38;59.35
77867;BME280;67271;59.120;37.970;2023-04-23T03:09:14;99691.09;;;7.42;59.37
77867;BME280;67271;59.120;37.970;2023-04-23T03:11:40;99693.19;;;7.61;59.30
77867;BME280;67271;59.120;37.970;2023-04-23T03:14:07;99694.88;;;7.62;59.03
77867;BME280;67271;59.120;37.970;2023-04-23T03:16:33;99703.22;;;7.67;59.14
77867;BME280;67271;59.120;37.970;2023-04-23T03:18:59;99702.47;;;7.73;59.00
77867;BME280;67271;59.120;37.970;2023-04-23T03:21:26;99705.25;;;7.80;58.77
77867;BME280;67271;59.120;37.970;2023-04-23T03:23:51;99702.81;;;7.85;58.37
77867;BME280;67271;59.120;37.970;2023-04-23T03:26:17;99705.63;;;8.55;56.97
77867;BME280;67271;59.120;37.970;2023-04-23T03:28:43;99699.94;;;10.62;52.62
77867;BME280;67271;59.120;37.970;2023-04-23T03:31:09;99703.06;;;11.76;49.89
77867;BME280;67271;59.120;37.970;2023-04-23T03:33:35;99696.53;;;12.59;48.15
77867;BME280;67271;59.120;37.970;2023-04-23T03:36:02;99690.47;;;13.50;46.75
77867;BME280;67271;59.120;37.970;2023-04-23T03:38:30;99703.41;;;14.03;45.52
77867;BME280;67271;59.120;37.970;2023-04-23T03:40:58;99697.41;;;14.95;43.97
77867;BME280;67271;59.120;37.970;2023-04-23T03:43:24;99706.22;;;15.72;42.83
77867;BME280;67271;59.120;37.970;2023-04-23T03:46:02;99709.78;;;16.41;42.17
77867;BME280;67271;59.120;37.970;2023-04-23T03:48:31;99713.75;;;17.12;41.11
77867;BME280;67271;59.120;37.970;2023-04-23T03:50:59;99709.88;;;17.63;40.36
77867;BME280;67271;59.120;37.970;2023-04-23T03:53:40;99713.94;;;18.04;39.75
77867;BME280;67271;59.120;37.970;2023-04-23T03:56:25;99712.16;;;18.15;39.60
77867;BME280;67271;59.120;37.970;2023-04-23T03:59:03;99707.53;;;17.94;39.76
77867;BME280;67271;59.120;37.970;2023-04-23T04:01:29;99718.00;;;18.24;38.99
77867;BME280;67271;59.120;37.970;2023-04-23T04:03:57;99721.53;;;18.46;38.56
77867;BME280;67271;59.120;37.970;2023-04-23T04:06:23;99715.81;;;18.47;38.30
77867;BME280;67271;59.120;37.970;2023-04-23T04:08:49;99720.19;;;18.22;38.33
77867;BME280;67271;59.120;37.970;2023-04-23T04:11:15;99717.16;;;17.96;38.60
77867;BME280;67271;59.120;37.970;2023-04-23T04:13:41;99731.13;;;18.22;37.95
77867;BME280;67271;59.120;37.970;2023-04-23T04:16:07;99722.38;;;18.46;37.31
77867;BME280;67271;59.120;37.970;2023-04-23T04:18:32;99726.03;;;18.30;37.47
77867;BME280;67271;59.120;37.970;2023-04-23T04:20:58;99723.63;;;17.90;37.69
77867;BME280;67271;59.120;37.970;2023-04-23T04:23:25;99725.72;;;17.83;37.73
77867;BME280;67271;59.120;37.970;2023-04-23T04:25:51;99727.38;;;18.06;37.58
77867;BME280;67271;59.120;37.970;2023-04-23T04:28:21;99728.81;;;18.35;37.01
77867;BME280;67271;59.120;37.970;2023-04-23T04:30:47;99733.44;;;18.08;37.27
77867;BME280;67271;59.120;37.970;2023-04-23T04:33:14;99730.69;;;18.30;37.13
77867;BME280;67271;59.120;37.970;2023-04-23T04:35:41;99730.56;;;18.68;36.59
77867;BME280;67271;59.120;37.970;2023-04-23T04:38:07;99732.81;;;18.71;36.43
77867;BME280;67271;59.120;37.970;2023-04-23T04:40:33;99730.38;;;18.80;36.25
77867;BME280;67271;59.120;37.970;2023-04-23T04:42:59;99730.84;;;19.36;35.42
77867;BME280;67271;59.120;37.970;2023-04-23T04:45:25;99727.97;;;19.15;35.42
77867;BME280;67271;59.120;37.970;2023-04-23T04:47:51;99741.78;;;18.93;35.62
77867;BME280;67271;59.120;37.970;2023-04-23T04:50:17;99742.34;;;18.69;35.90
77867;BME280;67271;59.120;37.970;2023-04-23T04:52:42;99743.59;;;19.47;34.93
77867;BME280;67271;59.120;37.970;2023-04-23T04:55:08;99746.09;;;19.53;34.60
77867;BME280;67271;59.120;37.970;2023-04-23T04:57:34;99746.97;;;19.27;34.69
77867;BME280;67271;59.120;37.970;2023-04-23T05:00:11;99744.75;;;19.24;34.82
77867;BME280;67271;59.120;37.970;2023-04-23T05:02:43;99749.34;;;19.50;34.60
77867;BME280;67271;59.120;37.970;2023-04-23T05:05:09;99754.44;;;19.37;34.79
77867;BME280;67271;59.120;37.970;2023-04-23T05:07:35;99752.53;;;19.37;34.58
77867;BME280;67271;59.120;37.970;2023-04-23T05:10:01;99744.06;;;19.86;34.05
77867;BME280;67271;59.120;37.970;2023-04-23T05:12:28;99746.94;;;20.11;33.47
77867;BME280;67271;59.120;37.970;2023-04-23T05:14:54;99743.78;;;20.44;33.06
77867;BME280;67271;59.120;37.970;2023-04-23T05:17:20;99740.78;;;20.61;32.76
77867;BME280;67271;59.120;37.970;2023-04-23T05:19:46;99746.59;;;21.10;32.11
77867;BME280;67271;59.120;37.970;2023-04-23T05:22:11;99748.28;;;21.32;32.15
77867;BME280;67271;59.120;37.970;2023-04-23T05:24:37;99748.75;;;21.69;31.63
77867;BME280;67271;59.120;37.970;2023-04-23T05:27:03;99747.81;;;22.14;31.38
77867;BME280;67271;59.120;37.970;2023-04-23T05:29:29;99749.72;;;22.19;31.32
77867;BME280;67271;59.120;37.970;2023-04-23T05:31:55;99751.34;;;22.20;31.53
77867;BME280;67271;59.120;37.970;2023-04-23T05:36:46;99741.50;;;22.63;31.04
77867;BME280;67271;59.120;37.970;2023-04-23T05:39:12;99757.94;;;23.17;30.15
77867;BME280;67271;59.120;37.970;2023-04-23T05:41:38;99753.56;;;23.11;30.36
77867;BME280;67271;59.120;37.970;2023-04-23T05:44:04;99758.88;;;23.07;29.92
77867;BME280;67271;59.120;37.970;2023-04-23T05:46:30;99757.38;;;23.20;30.11
77867;BME280;67271;59.120;37.970;2023-04-23T05:48:56;99754.31;;;23.56;29.59
77867;BME280;67271;59.120;37.970;2023-04-23T05:51:21;99754.81;;;23.86;29.01
77867;BME280;67271;59.120;37.970;2023-04-23T05:53:47;99743.13;;;24.13;28.71
77867;BME280;67271;59.120;37.970;2023-04-23T05:56:13;99745.78;;;24.47;28.33
77867;BME280;67271;59.120;37.970;2023-04-23T05:58:39;99750.19;;;24.67;27.91
77867;BME280;67271;59.120;37.970;2023-04-23T06:01:05;99746.69;;;24.99;27.52
77867;BME280;67271;59.120;37.970;2023-04-23T06:03:31;99741.16;;;24.80;27.34
77867;BME280;67271;59.120;37.970;2023-04-23T06:05:57;99750.09;;;24.35;27.81
77867;BME280;67271;59.120;37.970;2023-04-23T06:08:23;99752.88;;;24.35;28.03
77867;BME280;67271;59.120;37.970;2023-04-23T06:10:48;99759.53;;;24.52;27.67
77867;BME280;67271;59.120;37.970;2023-04-23T06:13:15;99762.59;;;24.69;27.53
77867;BME280;67271;59.120;37.970;2023-04-23T06:15:41;99751.59;;;24.83;27.47
77867;BME280;67271;59.120;37.970;2023-04-23T06:18:06;99760.22;;;25.00;27.18
77867;BME280;67271;59.120;37.970;2023-04-23T06:20:33;99759.81;;;25.26;27.03
77867;BME280;67271;59.120;37.970;2023-04-23T06:22:58;99760.19;;;25.52;26.66
77867;BME280;67271;59.120;37.970;2023-04-23T06:25:24;99758.91;;;25.30;26.58
77867;BME280;67271;59.120;37.970;2023-04-23T06:27:50;99752.44;;;25.35;26.53
77867;BME280;67271;59.120;37.970;2023-04-23T06:30:21;99757.31;;;25.11;26.63
77867;BME280;67271;59.120;37.970;2023-04-23T06:32:46;99756.75;;;24.90;26.73
77867;BME280;67271;59.120;37.970;2023-04-23T06:35:12;99757.03;;;24.93;26.65
77867;BME280;67271;59.120;37.970;2023-04-23T06:37:38;99762.91;;;25.05;26.51
77867;BME280;67271;59.120;37.970;2023-04-23T06:40:04;99754.97;;;24.80;26.62
77867;BME280;67271;59.120;37.970;2023-04-23T06:42:31;99753.38;;;24.37;27.20
77867;BME280;67271;59.120;37.970;2023-04-23T06:45:15;99747.03;;;24.74;26.42
77867;BME280;67271;59.120;37.970;2023-04-23T06:47:40;99752.66;;;24.50;26.61
77867;BME280;67271;59.120;37.970;2023-04-23T06:50:07;99753.03;;;24.43;26.46
77867;BME280;67271;59.120;37.970;2023-04-23T06:52:33;99750.56;;;24.60;26.59
77867;BME280;67271;59.120;37.970;2023-04-23T06:54:59;99757.22;;;24.59;26.41
77867;BME280;67271;59.120;37.970;2023-04-23T06:57:25;99753.47;;;24.50;26.44
77867;BME280;67271;59.120;37.970;2023-04-23T06:59:51;99761.16;;;24.35;26.64
77867;BME280;67271;59.120;37.970;2023-04-23T07:02:20;99765.78;;;24.20;26.65
77867;BME280;67271;59.120;37.970;2023-04-23T07:04:46;99755.56;;;23.92;26.85
77867;BME280;67271;59.120;37.970;2023-04-23T07:07:12;99762.28;;;24.10;26.67
77867;BME280;67271;59.120;37.970;2023-04-23T07:09:38;99764.50;;;23.84;26.77
77867;BME280;67271;59.120;37.970;2023-04-23T07:12:04;99763.44;;;23.80;26.74
77867;BME280;67271;59.120;37.970;2023-04-23T07:14:30;99764.25;;;23.23;27.34
77867;BME280;67271;59.120;37.970;2023-04-23T07:16:57;99770.94;;;22.72;27.62
77867;BME280;67271;59.120;37.970;2023-04-23T07:19:23;99770.50;;;22.55;27.56
77867;BME280;67271;59.120;37.970;2023-04-23T07:21:52;99766.59;;;22.07;28.11
77867;BME280;67271;59.120;37.970;2023-04-23T07:24:18;99774.16;;;21.31;28.78
77867;BME280;67271;59.120;37.970;2023-04-23T07:26:44;99775.16;;;20.64;29.24
77867;BME280;67271;59.120;37.970;2023-04-23T07:29:10;99774.25;;;20.38;29.47
77867;BME280;67271;59.120;37.970;2023-04-23T07:31:38;99773.16;;;20.34;29.53
77867;BME280;67271;59.120;37.970;2023-04-23T07:34:06;99772.13;;;20.75;29.08
77867;BME280;67271;59.120;37.970;2023-04-23T07:36:32;99774.34;;;20.78;29.22
77867;BME280;67271;59.120;37.970;2023-04-23T07:38:58;99771.63;;;20.89;28.84
77867;BME280;67271;59.120;37.970;2023-04-23T07:41:24;99768.25;;;20.61;29.50
77867;BME280;67271;59.120;37.970;2023-04-23T07:43:49;99772.06;;;20.40;29.69
77867;BME280;67271;59.120;37.970;2023-04-23T07:46:15;99767.31;;;20.25;29.86
77867;BME280;67271;59.120;37.970;2023-04-23T07:48:41;99772.41;;;20.01;30.23
77867;BME280;67271;59.120;37.970;2023-04-23T07:51:08;99765.56;;;20.04;30.40
77867;BME280;67271;59.120;37.970;2023-04-23T07:53:34;99766.34;;;20.57;30.05
77867;BME280;67271;59.120;37.970;2023-04-23T07:56:00;99767.50;;;21.06;29.64
77867;BME280;67271;59.120;37.970;2023-04-23T07:58:26;99778.81;;;21.05;29.68
77867;BME280;67271;59.120;37.970;2023-04-23T08:00:52;99762.56;;;21.03;29.54
77867;BME280;67271;59.120;37.970;2023-04-23T08:03:18;99767.81;;;21.30;29.68
77867;BME280;67271;59.120;37.970;2023-04-23T08:05:44;99772.19;;;21.56;29.23
77867;BME280;67271;59.120;37.970;2023-04-23T08:08:11;99766.44;;;21.17;29.59
77867;BME280;67271;59.120;37.970;2023-04-23T08:10:39;99767.13;;;20.37;30.44
77867;BME280;67271;59.120;37.970;2023-04-23T08:13:05;99761.41;;;19.96;31.10
77867;BME280;67271;59.120;37.970;2023-04-23T08:15:31;99765.91;;;19.65;31.35
77867;BME280;67271;59.120;37.970;2023-04-23T08:17:56;99765.06;;;19.60;31.74
77867;BME280;67271;59.120;37.970;2023-04-23T08:20:22;99753.03;;;19.29;32.15
77867;BME280;67271;59.120;37.970;2023-04-23T08:22:50;99767.19;;;19.16;32.34
77867;BME280;67271;59.120;37.970;2023-04-23T08:25:17;99756.91;;;19.01;32.58
77867;BME280;67271;59.120;37.970;2023-04-23T08:27:43;99755.56;;;19.04;32.79
77867;BME280;67271;59.120;37.970;2023-04-23T08:30:09;99757.81;;;19.12;32.73
77867;BME280;67271;59.120;37.970;2023-04-23T08:32:35;99756.47;;;19.14;32.88
77867;BME280;67271;59.120;37.970;2023-04-23T08:35:01;99753.84;;;19.29;32.71
77867;BME280;67271;59.120;37.970;2023-04-23T08:37:27;99750.19;;;19.19;32.79
77867;BME280;67271;59.120;37.970;2023-04-23T08:39:53;99753.72;;;18.82;33.54
77867;BME280;67271;59.120;37.970;2023-04-23T08:42:42;99757.88;;;18.85;33.65
77867;BME280;67271;59.120;37.970;2023-04-23T08:45:11;99751.00;;;19.14;33.18
77867;BME280;67271;59.120;37.970;2023-04-23T08:47:41;99748.88;;;19.26;33.10
77867;BME280;67271;59.120;37.970;2023-04-23T08:50:13;99745.06;;;19.32;33.21
77867;BME280;67271;59.120;37.970;2023-04-23T08:52:41;99741.88;;;19.46;32.67
77867;BME280;67271;59.120;37.970;2023-04-23T08:55:10;99743.44;;;19.68;32.88
77867;BME280;67271;59.120;37.970;2023-04-23T08:57:39;99735.00;;;19.85;32.68
77867;BME280;67271;59.120;37.970;2023-04-23T09:00:10;99730.78;;;19.67;33.11
77867;BME280;67271;59.120;37.970;2023-04-23T09:02:39;99732.38;;;19.53;33.34
77867;BME280;67271;59.120;37.970;2023-04-23T09:05:06;99733.41;;;19.47;33.47
77867;BME280;67271;59.120;37.970;2023-04-23T09:07:34;99725.97;;;19.90;32.85
77867;BME280;67271;59.120;37.970;2023-04-23T09:10:10;99733.19;;;20.11;32.88
77867;BME280;67271;59.120;37.970;2023-04-23T09:12:40;99729.94;;;20.19;32.51
77867;BME280;67271;59.120;37.970;2023-04-23T09:15:07;99728.47;;;20.01;32.65
77867;BME280;67271;59.120;37.970;2023-04-23T09:17:42;99725.91;;;19.85;33.02
77867;BME280;67271;59.120;37.970;2023-04-23T09:20:09;99729.53;;;19.90;33.06
77867;BME280;67271;59.120;37.970;2023-04-23T09:22:46;99727.56;;;19.81;33.11
77867;BME280;67271;59.120;37.970;2023-04-23T09:25:14;99724.47;;;19.62;33.35
77867;BME280;67271;59.120;37.970;2023-04-23T09:27:42;99721.78;;;19.35;33.64
77867;BME280;67271;59.120;37.970;2023-04-23T09:30:09;99724.41;;;19.20;33.91
77867;BME280;67271;59.120;37.970;2023-04-23T09:32:37;99724.28;;;19.42;33.31
77867;BME280;67271;59.120;37.970;2023-04-23T09:35:05;99720.09;;;19.29;33.41
77867;BME280;67271;59.120;37.970;2023-04-23T09:37:32;99721.88;;;19.08;33.63
77867;BME280;67271;59.120;37.970;2023-04-23T09:40:03;99719.41;;;18.80;33.93
77867;BME280;67271;59.120;37.970;2023-04-23T09:42:31;99721.28;;;18.74;34.07
77867;BME280;67271;59.120;37.970;2023-04-23T09:45:05;99728.75;;;18.79;33.83
77867;BME280;67271;59.120;37.970;2023-04-23T09:47:54;99728.88;;;18.94;33.70
77867;BME280;67271;59.120;37.970;2023-04-23T09:50:39;99728.53;;;18.85;33.96
77867;BME280;67271;59.120;37.970;2023-04-23T09:53:08;99723.75;;;18.71;33.85
77867;BME280;67271;59.120;37.970;2023-04-23T09:55:36;99719.38;;;18.75;33.96
77867;BME280;67271;59.120;37.970;2023-04-23T09:58:11;99723.16;;;18.69;33.88
77867;BME280;67271;59.120;37.970;2023-04-23T10:00:38;99716.38;;;18.76;33.80
77867;BME280;67271;59.120;37.970;2023-04-23T10:03:08;99711.63;;;18.99;33.22
77867;BME280;67271;59.120;37.970;2023-04-23T10:05:39;99708.38;;;19.39;32.58
77867;BME280;67271;59.120;37.970;2023-04-23T10:08:06;99704.94;;;19.58;32.32
77867;BME280;67271;59.120;37.970;2023-04-23T10:10:33;99701.94;;;19.60;32.12
77867;BME280;67271;59.120;37.970;2023-04-23T10:12:59;99708.19;;;19.50;32.26
77867;BME280;67271;59.120;37.970;2023-04-23T10:15:25;99705.69;;;19.49;32.21
77867;BME280;67271;59.120;37.970;2023-04-23T10:17:53;99707.81;;;19.42;32.18
77867;BME280;67271;59.120;37.970;2023-04-23T10:20:22;99715.94;;;19.63;31.93
77867;BME280;67271;59.120;37.970;2023-04-23T10:22:48;99709.44;;;19.80;31.73
77867;BME280;67271;59.120;37.970;2023-04-23T10:25:19;99716.66;;;19.96;31.42
77867;BME280;67271;59.120;37.970;2023-04-23T10:27:48;99712.81;;;19.97;31.29
77867;BME280;67271;59.120;37.970;2023-04-23T10:30:14;99720.16;;;19.81;31.49
77867;BME280;67271;59.120;37.970;2023-04-23T10:32:41;99718.75;;;19.74;31.42
77867;BME280;67271;59.120;37.970;2023-04-23T10:35:07;99725.06;;;19.79;31.41
77867;BME280;67271;59.120;37.970;2023-04-23T10:37:35;99723.22;;;19.90;31.20
77867;BME280;67271;59.120;37.970;2023-04-23T10:40:08;99726.56;;;20.02;31.16
77867;BME280;67271;59.120;37.970;2023-04-23T10:42:38;99715.81;;;20.00;30.70
77867;BME280;67271;59.120;37.970;2023-04-23T10:45:18;99712.59;;;20.19;30.75
77867;BME280;67271;59.120;37.970;2023-04-23T10:47:46;99712.03;;;20.06;31.00
77867;BME280;67271;59.120;37.970;2023-04-23T10:50:19;99707.63;;;20.05;31.08
77867;BME280;67271;59.120;37.970;2023-04-23T10:52:47;99711.19;;;20.06;31.06
77867;BME280;67271;59.120;37.970;2023-04-23T10:55:22;99715.25;;;19.93;31.08
77867;BME280;67271;59.120;37.970;2023-04-23T10:58:04;99701.00;;;19.91;31.10
77867;BME280;67271;59.120;37.970;2023-04-23T11:00:45;99710.50;;;19.68;31.47
77867;BME280;67271;59.120;37.970;2023-04-23T11:03:36;99720.81;;;19.51;31.63
77867;BME280;67271;59.120;37.970;2023-04-23T11:06:07;99720.66;;;19.31;31.89
77867;BME280;67271;59.120;37.970;2023-04-23T11:08:37;99721.16;;;19.23;31.82
77867;BME280;67271;59.120;37.970;2023-04-23T11:11:07;99718.28;;;19.08;32.13
77867;BME280;67271;59.120;37.970;2023-04-23T11:13:33;99706.84;;;19.16;32.25
77867;BME280;67271;59.120;37.970;2023-04-23T11:16:16;99721.25;;;19.38;31.94
77867;BME280;67271;59.120;37.970;2023-04-23T11:18:59;99724.38;;;19.52;31.67
77867;BME280;67271;59.120;37.970;2023-04-23T11:24:34;99719.34;;;19.39;32.01
77867;BME280;67271;59.120;37.970;2023-04-23T11:27:05;99716.19;;;19.20;32.31
77867;BME280;67271;59.120;37.970;2023-04-23T11:29:32;99722.91;;;19.39;32.55
77867;BME280;67271;59.120;37.970;2023-04-23T11:31:58;99722.50;;;19.57;32.00
77867;BME280;67271;59.120;37.970;2023-04-23T11:34:25;99725.81;;;19.64;32.25
77867;BME280;67271;59.120;37.970;2023-04-23T11:36:53;99714.34;;;19.73;32.14
77867;BME280;67271;59.120;37.970;2023-04-23T11:39:23;99708.84;;;19.67;31.83
77867;BME280;67271;59.120;37.970;2023-04-23T11:41:49;99722.41;;;19.47;32.14
77867;BME280;67271;59.120;37.970;2023-04-23T11:44:18;99715.94;;;19.63;31.96
77867;BME280;67271;59.120;37.970;2023-04-23T11:46:48;99717.66;;;19.75;31.89
77867;BME280;67271;59.120;37.970;2023-04-23T11:49:16;99720.13;;;19.76;31.99
77867;BME280;67271;59.120;37.970;2023-04-23T11:51:43;99722.06;;;19.76;32.25
77867;BME280;67271;59.120;37.970;2023-04-23T11:54:10;99711.91;;;19.76;31.84
77867;BME280;67271;59.120;37.970;2023-04-23T11:56:36;99722.81;;;19.61;31.93
77867;BME280;67271;59.120;37.970;2023-04-23T11:59:03;99718.28;;;19.45;32.04
77867;BME280;67271;59.120;37.970;2023-04-23T12:01:45;99714.13;;;19.37;32.12
77867;BME280;67271;59.120;37.970;2023-04-23T12:04:13;99713.53;;;19.35;32.11
77867;BME280;67271;59.120;37.970;2023-04-23T12:06:41;99722.34;;;19.37;32.27
77867;BME280;67271;59.120;37.970;2023-04-23T12:09:09;99726.91;;;19.63;31.86
77867;BME280;67271;59.120;37.970;2023-04-23T12:11:36;99722.59;;;19.78;31.37
77867;BME280;67271;59.120;37.970;2023-04-23T12:14:03;99716.53;;;19.70;31.79
77867;BME280;67271;59.120;37.970;2023-04-23T12:16:43;99725.56;;;19.66;31.69
77867;BME280;67271;59.120;37.970;2023-04-23T12:19:13;99716.53;;;19.70;31.65
77867;BME280;67271;59.120;37.970;2023-04-23T12:21:49;99710.75;;;19.72;31.76
77867;BME280;67271;59.120;37.970;2023-04-23T12:24:15;99710.50;;;19.74;31.88
77867;BME280;67271;59.120;37.970;2023-04-23T12:26:41;99704.44;;;19.66;32.12
77867;BME280;67271;59.120;37.970;2023-04-23T12:29:12;99711.50;;;19.57;32.12
77867;BME280;67271;59.120;37.970;2023-04-23T12:31:38;99708.28;;;19.70;31.93
77867;BME280;67271;59.120;37.970;2023-04-23T12:34:07;99700.63;;;19.78;31.81
77867;BME280;67271;59.120;37.970;2023-04-23T12:36:35;99710.00;;;19.82;31.89
77867;BME280;67271;59.120;37.970;2023-04-23T12:39:23;99704.81;;;19.90;31.77
77867;BME280;67271;59.120;37.970;2023-04-23T12:42:00;99697.94;;;19.93;31.66
77867;BME280;67271;59.120;37.970;2023-04-23T12:44:51;99696.47;;;19.65;32.11
77867;BME280;67271;59.120;37.970;2023-04-23T12:47:19;99707.03;;;19.46;32.30
77867;BME280;67271;59.120;37.970;2023-04-23T12:49:48;99702.94;;;19.49;32.29
77867;BME280;67271;59.120;37.970;2023-04-23T12:52:17;99710.94;;;19.55;32.19
77867;BME280;67271;59.120;37.970;2023-04-23T12:54:43;99700.84;;;19.61;31.97
77867;BME280;67271;59.120;37.970;2023-04-23T12:57:12;99705.53;;;19.70;31.77
77867;BME280;67271;59.120;37.970;2023-04-23T12:59:41;99705.03;;;19.79;31.76
77867;BME280;67271;59.120;37.970;2023-04-23T13:02:08;99702.88;;;19.86;31.65
77867;BME280;67271;59.120;37.970;2023-04-23T13:04:34;99701.81;;;19.92;31.46